Tokuyo Maru No21 — JK5540 — position and weather

sailwx.info

Track history (hours):
 
Tides and Currents Weather Stations Pressure Air Temp Water Temp Dewpoint Dewpoint Depression Visibility Wind Speed Wind Dir Waves Ship Positions

Tokuyo Maru No21

Last reported at 2017-Nov-18 03:40 UTC. Time now 2017-Nov-18 17:56 UTC.
Position N 34°37' E 135°01'.

Length 67 m; draft 4.5 m.

Type: Tanker. MMSI: 431401849.

Date/timePositionNaut miles runAvg speedWind from/ knotsBaromVisibWave heightAir tempDewpointWater temp
2017-Nov-18 03:40N 34°37' E 135°01'210.6
2017-Nov-18 03:29N 34°36' E 135°03'612.6
2017-Nov-18 03:00N 34°36' E 135°10'713.2
2017-Nov-18 02:30N 34°36' E 135°18'611.2
2017-Nov-18 02:00N 34°36' E 135°25'2 1.4
2017-Nov-18 00:53N 34°34' E 135°26'0 0.0
2017-Nov-17 22:39N 34°34' E 135°26'1 3.4
2017-Nov-17 22:30N 34°35' E 135°25'2 4.0
2017-Nov-17 21:58N 34°36' E 135°23'0 0.0
2017-Nov-17 21:22N 34°36' E 135°23'0 0.0
2017-Nov-17 20:52N 34°36' E 135°23'0 0.0
2017-Nov-17 19:46N 34°36' E 135°23'0 0.0
2017-Nov-17 19:28N 34°36' E 135°23'0 0.1
2017-Nov-17 18:52N 34°36' E 135°23'0 0.0
2017-Nov-17 18:28N 34°36' E 135°23'0 0.0
2017-Nov-17 17:34N 34°36' E 135°23'0 0.1
2017-Nov-17 17:28N 34°36' E 135°23'0 0.0
2017-Nov-17 16:58N 34°36' E 135°23'0 0.0
2017-Nov-17 16:28N 34°36' E 135°23'0 0.1
2017-Nov-17 15:52N 34°36' E 135°23'0 0.1
2017-Nov-17 15:28N 34°36' E 135°23'0 0.1
2017-Nov-17 14:58N 34°36' E 135°23'0 0.0
2017-Nov-17 13:58N 34°36' E 135°23'0 0.1
2017-Nov-17 13:30N 34°36' E 135°23'4 7.9
2017-Nov-17 13:00N 34°33' E 135°19'612.8
2017-Nov-17 12:30N 34°29' E 135°14'712.8
2017-Nov-17 11:59N 34°24' E 135°08'1212.3
2017-Nov-17 11:01N 34°15' E 134°60'113.8
2017-Nov-17 10:58N 34°14' E 134°60'713.3
2017-Nov-17 10:26N 34°07' E 135°01'22410.0
2017-Nov-16 12:04N 34°58' E 139°26'212.3
2017-Nov-16 11:55N 34°59' E 139°27'512.5
2017-Nov-16 11:29N 35°03' E 139°33'612.4
2017-Nov-16 11:00N 35°06' E 139°39'612.5
2017-Nov-16 10:30N 35°10' E 139°44'612.6
2017-Nov-16 10:00N 35°16' E 139°45'612.6
2017-Nov-16 09:29N 35°22' E 139°42'612.7
2017-Nov-16 09:01N 35°27' E 139°47'7 0.6
2017-Nov-15 21:38N 35°29' E 139°55'0 0.8
2017-Nov-15 21:24N 35°29' E 139°55'0 0.0
2017-Nov-15 20:57N 35°29' E 139°55'0 0.0
2017-Nov-15 20:30N 35°29' E 139°55'0 0.0
2017-Nov-15 20:00N 35°29' E 139°55'0 0.0
2017-Nov-15 19:16N 35°29' E 139°55'0 0.0
2017-Nov-15 18:59N 35°29' E 139°55'0 0.0
2017-Nov-15 18:30N 35°29' E 139°55'0 0.0
2017-Nov-15 17:32N 35°29' E 139°55'0 0.0
2017-Nov-15 17:08N 35°29' E 139°55'0 0.0
2017-Nov-15 16:58N 35°29' E 139°55'0 0.0
2017-Nov-15 16:30N 35°29' E 139°55'4 8.6
2017-Nov-15 16:00N 35°27' E 139°50'612.6
2017-Nov-15 15:30N 35°22' E 139°45'611.5
2017-Nov-15 15:00N 35°17' E 139°46'612.1
2017-Nov-15 14:30N 35°11' E 139°47'612.2
2017-Nov-15 14:00N 35°05' E 139°43'612.5
2017-Nov-15 13:30N 35°01' E 139°37'23611.0
2017-Nov-14 16:08N 34°04' E 134°59'413.3
2017-Nov-14 15:50N 34°09' E 134°59'514.2
2017-Nov-14 15:28N 34°14' E 134°58'1014.5
2017-Nov-14 14:49N 34°23' E 134°60'613.7
2017-Nov-14 14:23N 34°29' E 135°01'513.5
2017-Nov-14 14:00N 34°34' E 135°03'  
2017-Nov-12 07:03N 34°05' E 134°59'213.0
2017-Nov-12 06:53N 34°07' E 134°59'512.9
2017-Nov-12 06:30N 34°12' E 134°59'2111.2
2017-Nov-12 04:35N 34°30' E 135°13'113.1
2017-Nov-12 04:30N 34°31' E 135°14'612.7
2017-Nov-12 04:00N 34°35' E 135°20'4 8.6
2017-Nov-12 03:30N 34°35' E 135°26'0 0.2
2017-Nov-12 02:53N 34°35' E 135°26'0 0.0
2017-Nov-12 02:29N 34°35' E 135°26'0 0.0
2017-Nov-12 01:59N 34°35' E 135°26'0 0.0
2017-Nov-12 01:29N 34°35' E 135°26'0 0.0
2017-Nov-12 00:53N 34°35' E 135°26'0 0.0
2017-Nov-12 00:29N 34°35' E 135°26'0 0.1
2017-Nov-11 23:59N 34°35' E 135°26'0 0.1
2017-Nov-11 23:29N 34°35' E 135°26'0 0.0
2017-Nov-11 22:59N 34°35' E 135°26'0 0.4
2017-Nov-11 22:28N 34°35' E 135°26'3 5.5
2017-Nov-11 22:00N 34°36' E 135°23'1 1.1
2017-Nov-11 21:28N 34°36' E 135°23'0 0.0
2017-Nov-11 20:58N 34°36' E 135°23'0 0.0
2017-Nov-11 20:28N 34°36' E 135°23'0 0.0
2017-Nov-11 19:40N 34°36' E 135°23'0 0.0
2017-Nov-11 19:22N 34°36' E 135°23'0 0.0
2017-Nov-11 18:58N 34°36' E 135°23'0 0.0
2017-Nov-11 18:28N 34°36' E 135°23'0 0.1
2017-Nov-11 17:58N 34°36' E 135°23'0 0.0
2017-Nov-11 17:10N 34°36' E 135°23'0 0.2
2017-Nov-11 16:52N 34°36' E 135°23'0 0.0
2017-Nov-11 16:22N 34°36' E 135°23'0 0.0
2017-Nov-11 15:58N 34°36' E 135°23'0 0.0
2017-Nov-11 15:28N 34°36' E 135°23'0 0.1
2017-Nov-11 14:58N 34°36' E 135°23'0 0.1
2017-Nov-11 14:28N 34°36' E 135°23'0 0.0
2017-Nov-11 13:52N 34°36' E 135°23'0 0.0
2017-Nov-11 13:22N 34°36' E 135°23'0 0.0
2017-Nov-11 12:52N 34°36' E 135°23'0 0.1
2017-Nov-11 12:28N 34°36' E 135°23'0 0.1
2017-Nov-11 11:58N 34°36' E 135°23'0 0.1
2017-Nov-11 11:28N 34°36' E 135°23'0 0.0
2017-Nov-11 10:58N 34°36' E 135°23'0 0.0
2017-Nov-11 10:28N 34°36' E 135°23'0 0.1
2017-Nov-11 09:58N 34°36' E 135°23'0 0.0
2017-Nov-11 09:28N 34°36' E 135°23'2 5.1
2017-Nov-11 09:00N 34°36' E 135°20'3 6.9
2017-Nov-11 08:30N 34°36' E 135°24'2 0.6
2017-Nov-11 05:11N 34°34' E 135°26'1 0.6
2017-Nov-11 03:59N 34°35' E 135°25'2 5.0
2017-Nov-11 03:30N 34°36' E 135°23'1 1.2
2017-Nov-11 02:56N 34°36' E 135°23'0 0.0
2017-Nov-11 02:14N 34°36' E 135°23'0 0.0
2017-Nov-11 01:56N 34°36' E 135°23'0 0.0
2017-Nov-11 01:26N 34°36' E 135°23'1 2.8
2017-Nov-11 01:00N 34°35' E 135°22'612.3
2017-Nov-11 00:30N 34°35' E 135°14'713.5
2017-Nov-11 00:00N 34°35' E 135°06'813.7
2017-Nov-10 23:23N 34°36' E 134°56'5 0.1
2017-Nov-09 10:38N 34°37' E 135°01'110.3
2017-Nov-09 10:31N 34°36' E 135°03'611.0
2017-Nov-09 10:01N 34°36' E 135°09'713.2
2017-Nov-09 09:31N 34°36' E 135°17'612.7
2017-Nov-09 09:00N 34°36' E 135°25'1 0.4
2017-Nov-09 06:02N 34°34' E 135°26'0 0.0
2017-Nov-09 05:58N 34°34' E 135°26'0 0.2
2017-Nov-09 05:30N 34°34' E 135°26'1 1.8
2017-Nov-09 04:46N 34°36' E 135°25'2 9.5
2017-Nov-09 04:30N 34°36' E 135°22'2 4.2
2017-Nov-09 04:00N 34°35' E 135°20'0 0.8
2017-Nov-09 03:30N 34°35' E 135°20'2 4.0
2017-Nov-09 03:00N 34°33' E 135°18'5 9.7
2017-Nov-09 02:30N 34°30' E 135°14'612.2
2017-Nov-09 02:00N 34°25' E 135°09'1312.8
2017-Nov-09 00:58N 34°15' E 134°59'612.4
2017-Nov-09 00:28N 34°09' E 134°59'  
Track history (hours):
 
Tides and Currents Weather Stations Pressure Air Temp Water Temp Dewpoint Dewpoint Depression Visibility Wind Speed Wind Dir Waves Ship Positions

Tokuyo Maru No21

Last reported at 2017-Nov-18 03:40 UTC. Time now 2017-Nov-18 17:56 UTC.
Position N 34°37' E 135°01'.

Length 67 m; draft 4.5 m.

Type: Tanker. MMSI: 431401849.

Date/timePositionNaut miles runAvg speedWind from/ knotsBaromVisibWave heightAir tempDewpointWater temp
2017-Nov-18 03:40N 34°37' E 135°01'210.6
2017-Nov-18 03:29N 34°36' E 135°03'612.6
2017-Nov-18 03:00N 34°36' E 135°10'713.2
2017-Nov-18 02:30N 34°36' E 135°18'611.2
2017-Nov-18 02:00N 34°36' E 135°25'2 1.4
2017-Nov-18 00:53N 34°34' E 135°26'0 0.0
2017-Nov-17 22:39N 34°34' E 135°26'1 3.4
2017-Nov-17 22:30N 34°35' E 135°25'2 4.0
2017-Nov-17 21:58N 34°36' E 135°23'0 0.0
2017-Nov-17 21:22N 34°36' E 135°23'0 0.0
2017-Nov-17 20:52N 34°36' E 135°23'0 0.0
2017-Nov-17 19:46N 34°36' E 135°23'0 0.0
2017-Nov-17 19:28N 34°36' E 135°23'0 0.1
2017-Nov-17 18:52N 34°36' E 135°23'0 0.0
2017-Nov-17 18:28N 34°36' E 135°23'0 0.0
2017-Nov-17 17:34N 34°36' E 135°23'0 0.1
2017-Nov-17 17:28N 34°36' E 135°23'0 0.0
2017-Nov-17 16:58N 34°36' E 135°23'0 0.0
2017-Nov-17 16:28N 34°36' E 135°23'0 0.1
2017-Nov-17 15:52N 34°36' E 135°23'0 0.1
2017-Nov-17 15:28N 34°36' E 135°23'0 0.1
2017-Nov-17 14:58N 34°36' E 135°23'0 0.0
2017-Nov-17 13:58N 34°36' E 135°23'0 0.1
2017-Nov-17 13:30N 34°36' E 135°23'4 7.9
2017-Nov-17 13:00N 34°33' E 135°19'612.8
2017-Nov-17 12:30N 34°29' E 135°14'712.8
2017-Nov-17 11:59N 34°24' E 135°08'1212.3
2017-Nov-17 11:01N 34°15' E 134°60'113.8
2017-Nov-17 10:58N 34°14' E 134°60'713.3
2017-Nov-17 10:26N 34°07' E 135°01'22410.0
2017-Nov-16 12:04N 34°58' E 139°26'212.3
2017-Nov-16 11:55N 34°59' E 139°27'512.5
2017-Nov-16 11:29N 35°03' E 139°33'612.4
2017-Nov-16 11:00N 35°06' E 139°39'612.5
2017-Nov-16 10:30N 35°10' E 139°44'612.6
2017-Nov-16 10:00N 35°16' E 139°45'612.6
2017-Nov-16 09:29N 35°22' E 139°42'612.7
2017-Nov-16 09:01N 35°27' E 139°47'7 0.6
2017-Nov-15 21:38N 35°29' E 139°55'0 0.8
2017-Nov-15 21:24N 35°29' E 139°55'0 0.0
2017-Nov-15 20:57N 35°29' E 139°55'0 0.0
2017-Nov-15 20:30N 35°29' E 139°55'0 0.0
2017-Nov-15 20:00N 35°29' E 139°55'0 0.0
2017-Nov-15 19:16N 35°29' E 139°55'0 0.0
2017-Nov-15 18:59N 35°29' E 139°55'0 0.0
2017-Nov-15 18:30N 35°29' E 139°55'0 0.0
2017-Nov-15 17:32N 35°29' E 139°55'0 0.0
2017-Nov-15 17:08N 35°29' E 139°55'0 0.0
2017-Nov-15 16:58N 35°29' E 139°55'0 0.0
2017-Nov-15 16:30N 35°29' E 139°55'4 8.6
2017-Nov-15 16:00N 35°27' E 139°50'612.6
2017-Nov-15 15:30N 35°22' E 139°45'611.5
2017-Nov-15 15:00N 35°17' E 139°46'612.1
2017-Nov-15 14:30N 35°11' E 139°47'612.2
2017-Nov-15 14:00N 35°05' E 139°43'612.5
2017-Nov-15 13:30N 35°01' E 139°37'23611.0
2017-Nov-14 16:08N 34°04' E 134°59'413.3
2017-Nov-14 15:50N 34°09' E 134°59'514.2
2017-Nov-14 15:28N 34°14' E 134°58'1014.5
2017-Nov-14 14:49N 34°23' E 134°60'613.7
2017-Nov-14 14:23N 34°29' E 135°01'513.5
2017-Nov-14 14:00N 34°34' E 135°03'  
2017-Nov-12 07:03N 34°05' E 134°59'213.0
2017-Nov-12 06:53N 34°07' E 134°59'512.9
2017-Nov-12 06:30N 34°12' E 134°59'2111.2
2017-Nov-12 04:35N 34°30' E 135°13'113.1
2017-Nov-12 04:30N 34°31' E 135°14'612.7
2017-Nov-12 04:00N 34°35' E 135°20'4 8.6
2017-Nov-12 03:30N 34°35' E 135°26'0 0.2
2017-Nov-12 02:53N 34°35' E 135°26'0 0.0
2017-Nov-12 02:29N 34°35' E 135°26'0 0.0
2017-Nov-12 01:59N 34°35' E 135°26'0 0.0
2017-Nov-12 01:29N 34°35' E 135°26'0 0.0
2017-Nov-12 00:53N 34°35' E 135°26'0 0.0
2017-Nov-12 00:29N 34°35' E 135°26'0 0.1
2017-Nov-11 23:59N 34°35' E 135°26'0 0.1
2017-Nov-11 23:29N 34°35' E 135°26'0 0.0
2017-Nov-11 22:59N 34°35' E 135°26'0 0.4
2017-Nov-11 22:28N 34°35' E 135°26'3 5.5
2017-Nov-11 22:00N 34°36' E 135°23'1 1.1
2017-Nov-11 21:28N 34°36' E 135°23'0 0.0
2017-Nov-11 20:58N 34°36' E 135°23'0 0.0
2017-Nov-11 20:28N 34°36' E 135°23'0 0.0
2017-Nov-11 19:40N 34°36' E 135°23'0 0.0
2017-Nov-11 19:22N 34°36' E 135°23'0 0.0
2017-Nov-11 18:58N 34°36' E 135°23'0 0.0
2017-Nov-11 18:28N 34°36' E 135°23'0 0.1
2017-Nov-11 17:58N 34°36' E 135°23'0 0.0
2017-Nov-11 17:10N 34°36' E 135°23'0 0.2
2017-Nov-11 16:52N 34°36' E 135°23'0 0.0
2017-Nov-11 16:22N 34°36' E 135°23'0 0.0
2017-Nov-11 15:58N 34°36' E 135°23'0 0.0
2017-Nov-11 15:28N 34°36' E 135°23'0 0.1
2017-Nov-11 14:58N 34°36' E 135°23'0 0.1
2017-Nov-11 14:28N 34°36' E 135°23'0 0.0
2017-Nov-11 13:52N 34°36' E 135°23'0 0.0
2017-Nov-11 13:22N 34°36' E 135°23'0 0.0
2017-Nov-11 12:52N 34°36' E 135°23'0 0.1
2017-Nov-11 12:28N 34°36' E 135°23'0 0.1
2017-Nov-11 11:58N 34°36' E 135°23'0 0.1
2017-Nov-11 11:28N 34°36' E 135°23'0 0.0
2017-Nov-11 10:58N 34°36' E 135°23'0 0.0
2017-Nov-11 10:28N 34°36' E 135°23'0 0.1
2017-Nov-11 09:58N 34°36' E 135°23'0 0.0
2017-Nov-11 09:28N 34°36' E 135°23'2 5.1
2017-Nov-11 09:00N 34°36' E 135°20'3 6.9
2017-Nov-11 08:30N 34°36' E 135°24'2 0.6
2017-Nov-11 05:11N 34°34' E 135°26'1 0.6
2017-Nov-11 03:59N 34°35' E 135°25'2 5.0
2017-Nov-11 03:30N 34°36' E 135°23'1 1.2
2017-Nov-11 02:56N 34°36' E 135°23'0 0.0
2017-Nov-11 02:14N 34°36' E 135°23'0 0.0
2017-Nov-11 01:56N 34°36' E 135°23'0 0.0
2017-Nov-11 01:26N 34°36' E 135°23'1 2.8
2017-Nov-11 01:00N 34°35' E 135°22'612.3
2017-Nov-11 00:30N 34°35' E 135°14'713.5
2017-Nov-11 00:00N 34°35' E 135°06'813.7
2017-Nov-10 23:23N 34°36' E 134°56'5 0.1
2017-Nov-09 10:38N 34°37' E 135°01'110.3
2017-Nov-09 10:31N 34°36' E 135°03'611.0
2017-Nov-09 10:01N 34°36' E 135°09'713.2
2017-Nov-09 09:31N 34°36' E 135°17'612.7
2017-Nov-09 09:00N 34°36' E 135°25'1 0.4
2017-Nov-09 06:02N 34°34' E 135°26'0 0.0
2017-Nov-09 05:58N 34°34' E 135°26'0 0.2
2017-Nov-09 05:30N 34°34' E 135°26'1 1.8
2017-Nov-09 04:46N 34°36' E 135°25'2 9.5
2017-Nov-09 04:30N 34°36' E 135°22'2 4.2
2017-Nov-09 04:00N 34°35' E 135°20'0 0.8
2017-Nov-09 03:30N 34°35' E 135°20'2 4.0
2017-Nov-09 03:00N 34°33' E 135°18'5 9.7
2017-Nov-09 02:30N 34°30' E 135°14'612.2
2017-Nov-09 02:00N 34°25' E 135°09'1312.8
2017-Nov-09 00:58N 34°15' E 134°59'612.4
2017-Nov-09 00:28N 34°09' E 134°59'  

Dump ship's entire track history